sensor_id;sensor_type;location;lat;lon;timestamp;P1;durP1;ratioP1;P2;durP2;ratioP2
19782;SDS011;10051;40.294;-3.754;2022-11-15T00:00:53;1.45;;;1.10;;
19782;SDS011;10051;40.294;-3.754;2022-11-15T00:03:23;1.15;;;1.05;;
19782;SDS011;10051;40.294;-3.754;2022-11-15T00:05:50;1.15;;;1.05;;
19782;SDS011;10051;40.294;-3.754;2022-11-15T00:08:16;1.10;;;1.00;;
19782;SDS011;10051;40.294;-3.754;2022-11-15T00:10:41;1.30;;;1.20;;
19782;SDS011;10051;40.294;-3.754;2022-11-15T00:13:07;1.20;;;1.10;;
19782;SDS011;10051;40.294;-3.754;2022-11-15T00:15:38;1.50;;;1.20;;
19782;SDS011;10051;40.294;-3.754;2022-11-15T00:18:04;2.53;;;1.25;;
19782;SDS011;10051;40.294;-3.754;2022-11-15T00:20:30;1.40;;;1.20;;
19782;SDS011;10051;40.294;-3.754;2022-11-15T00:22:58;1.95;;;1.20;;
19782;SDS011;10051;40.294;-3.754;2022-11-15T00:25:23;3.22;;;1.38;;
19782;SDS011;10051;40.294;-3.754;2022-11-15T00:27:49;1.52;;;1.27;;
19782;SDS011;10051;40.294;-3.754;2022-11-15T00:30:16;1.88;;;1.20;;
19782;SDS011;10051;40.294;-3.754;2022-11-15T00:32:42;1.33;;;1.23;;
19782;SDS011;10051;40.294;-3.754;2022-11-15T00:35:08;1.70;;;1.20;;
19782;SDS011;10051;40.294;-3.754;2022-11-15T00:37:33;2.65;;;1.50;;
19782;SDS011;10051;40.294;-3.754;2022-11-15T00:39:58;2.08;;;1.40;;
19782;SDS011;10051;40.294;-3.754;2022-11-15T00:42:24;1.95;;;1.48;;
19782;SDS011;10051;40.294;-3.754;2022-11-15T00:44:49;1.50;;;1.30;;
19782;SDS011;10051;40.294;-3.754;2022-11-15T00:47:15;1.60;;;1.48;;
19782;SDS011;10051;40.294;-3.754;2022-11-15T00:49:40;2.22;;;1.52;;
19782;SDS011;10051;40.294;-3.754;2022-11-15T00:52:06;1.58;;;1.45;;
19782;SDS011;10051;40.294;-3.754;2022-11-15T00:54:32;1.67;;;1.40;;
19782;SDS011;10051;40.294;-3.754;2022-11-15T00:56:57;1.60;;;1.40;;
19782;SDS011;10051;40.294;-3.754;2022-11-15T00:59:23;2.75;;;1.40;;
19782;SDS011;10051;40.294;-3.754;2022-11-15T01:01:48;1.65;;;1.33;;
19782;SDS011;10051;40.294;-3.754;2022-11-15T01:04:13;1.92;;;1.70;;
19782;SDS011;10051;40.294;-3.754;2022-11-15T01:06:39;1.77;;;1.55;;
19782;SDS011;10051;40.294;-3.754;2022-11-15T01:09:04;2.85;;;1.67;;
19782;SDS011;10051;40.294;-3.754;2022-11-15T01:11:30;2.13;;;1.70;;
19782;SDS011;10051;40.294;-3.754;2022-11-15T01:13:55;2.03;;;1.50;;
19782;SDS011;10051;40.294;-3.754;2022-11-15T01:16:21;1.50;;;1.40;;
19782;SDS011;10051;40.294;-3.754;2022-11-15T01:18:46;1.63;;;1.50;;
19782;SDS011;10051;40.294;-3.754;2022-11-15T01:21:16;2.58;;;1.60;;
19782;SDS011;10051;40.294;-3.754;2022-11-15T01:23:42;1.80;;;1.50;;
19782;SDS011;10051;40.294;-3.754;2022-11-15T01:26:10;1.95;;;1.42;;
19782;SDS011;10051;40.294;-3.754;2022-11-15T01:28:38;1.75;;;1.30;;
19782;SDS011;10051;40.294;-3.754;2022-11-15T01:31:07;1.92;;;1.52;;
19782;SDS011;10051;40.294;-3.754;2022-11-15T01:33:37;1.77;;;1.60;;
19782;SDS011;10051;40.294;-3.754;2022-11-15T01:36:05;2.25;;;1.50;;
19782;SDS011;10051;40.294;-3.754;2022-11-15T01:38:33;3.20;;;1.70;;
19782;SDS011;10051;40.294;-3.754;2022-11-15T01:40:59;1.40;;;1.30;;
19782;SDS011;10051;40.294;-3.754;2022-11-15T01:46:02;2.67;;;1.40;;
19782;SDS011;10051;40.294;-3.754;2022-11-15T01:48:32;1.60;;;1.40;;
19782;SDS011;10051;40.294;-3.754;2022-11-15T01:51:02;1.35;;;1.20;;
19782;SDS011;10051;40.294;-3.754;2022-11-15T01:53:32;1.42;;;1.20;;
19782;SDS011;10051;40.294;-3.754;2022-11-15T01:56:02;1.58;;;1.10;;
19782;SDS011;10051;40.294;-3.754;2022-11-15T01:58:29;3.15;;;1.20;;
19782;SDS011;10051;40.294;-3.754;2022-11-15T02:00:55;1.20;;;1.10;;
19782;SDS011;10051;40.294;-3.754;2022-11-15T02:03:21;1.25;;;1.10;;
19782;SDS011;10051;40.294;-3.754;2022-11-15T02:05:51;1.63;;;1.17;;
19782;SDS011;10051;40.294;-3.754;2022-11-15T02:08:18;1.10;;;1.00;;
19782;SDS011;10051;40.294;-3.754;2022-11-15T02:10:46;1.10;;;0.93;;
19782;SDS011;10051;40.294;-3.754;2022-11-15T02:13:13;1.40;;;1.00;;
19782;SDS011;10051;40.294;-3.754;2022-11-15T02:15:43;1.60;;;0.98;;
19782;SDS011;10051;40.294;-3.754;2022-11-15T02:18:31;1.10;;;1.00;;
19782;SDS011;10051;40.294;-3.754;2022-11-15T02:24:11;2.00;;;1.70;;
19782;SDS011;10051;40.294;-3.754;2022-11-15T02:26:56;1.85;;;1.35;;
19782;SDS011;10051;40.294;-3.754;2022-11-15T02:32:58;1.35;;;1.08;;
19782;SDS011;10051;40.294;-3.754;2022-11-15T02:37:58;1.98;;;1.20;;
19782;SDS011;10051;40.294;-3.754;2022-11-15T02:42:57;2.63;;;1.20;;
19782;SDS011;10051;40.294;-3.754;2022-11-15T02:45:51;1.45;;;1.10;;
19782;SDS011;10051;40.294;-3.754;2022-11-15T02:48:23;1.65;;;1.30;;
19782;SDS011;10051;40.294;-3.754;2022-11-15T02:50:51;2.10;;;1.30;;
19782;SDS011;10051;40.294;-3.754;2022-11-15T02:53:17;1.92;;;1.30;;
19782;SDS011;10051;40.294;-3.754;2022-11-15T02:55:46;1.38;;;1.13;;
19782;SDS011;10051;40.294;-3.754;2022-11-15T02:58:31;1.60;;;1.00;;
19782;SDS011;10051;40.294;-3.754;2022-11-15T03:01:56;1.10;;;1.00;;
19782;SDS011;10051;40.294;-3.754;2022-11-15T03:04:30;1.10;;;1.00;;
19782;SDS011;10051;40.294;-3.754;2022-11-15T03:12:36;1.27;;;1.17;;
19782;SDS011;10051;40.294;-3.754;2022-11-15T03:15:13;2.47;;;1.15;;
19782;SDS011;10051;40.294;-3.754;2022-11-15T03:17:47;1.50;;;1.30;;
19782;SDS011;10051;40.294;-3.754;2022-11-15T03:20:20;2.88;;;1.33;;
19782;SDS011;10051;40.294;-3.754;2022-11-15T03:22:46;2.22;;;1.30;;
19782;SDS011;10051;40.294;-3.754;2022-11-15T03:25:18;1.75;;;1.40;;
19782;SDS011;10051;40.294;-3.754;2022-11-15T03:27:48;2.17;;;1.38;;
19782;SDS011;10051;40.294;-3.754;2022-11-15T03:30:17;2.15;;;1.30;;
19782;SDS011;10051;40.294;-3.754;2022-11-15T03:32:47;3.03;;;1.50;;
19782;SDS011;10051;40.294;-3.754;2022-11-15T03:35:24;1.38;;;1.27;;
19782;SDS011;10051;40.294;-3.754;2022-11-15T03:37:57;1.80;;;1.42;;
19782;SDS011;10051;40.294;-3.754;2022-11-15T03:40:47;1.88;;;1.42;;
19782;SDS011;10051;40.294;-3.754;2022-11-15T03:49:05;1.85;;;1.42;;
19782;SDS011;10051;40.294;-3.754;2022-11-15T03:51:35;2.78;;;1.75;;
19782;SDS011;10051;40.294;-3.754;2022-11-15T03:54:02;2.40;;;1.70;;
19782;SDS011;10051;40.294;-3.754;2022-11-15T03:56:29;2.92;;;1.98;;
19782;SDS011;10051;40.294;-3.754;2022-11-15T03:58:54;3.55;;;1.80;;
19782;SDS011;10051;40.294;-3.754;2022-11-15T04:01:20;2.58;;;1.75;;
19782;SDS011;10051;40.294;-3.754;2022-11-15T04:03:45;2.55;;;1.63;;
19782;SDS011;10051;40.294;-3.754;2022-11-15T04:06:11;1.92;;;1.50;;
19782;SDS011;10051;40.294;-3.754;2022-11-15T04:08:36;1.95;;;1.50;;
19782;SDS011;10051;40.294;-3.754;2022-11-15T04:11:01;1.58;;;1.35;;
19782;SDS011;10051;40.294;-3.754;2022-11-15T04:13:27;2.33;;;1.30;;
19782;SDS011;10051;40.294;-3.754;2022-11-15T04:15:52;1.73;;;1.30;;
19782;SDS011;10051;40.294;-3.754;2022-11-15T04:18:18;1.45;;;1.33;;
19782;SDS011;10051;40.294;-3.754;2022-11-15T04:20:43;2.75;;;1.50;;
19782;SDS011;10051;40.294;-3.754;2022-11-15T04:23:27;2.15;;;1.38;;
19782;SDS011;10051;40.294;-3.754;2022-11-15T04:26:31;1.60;;;1.50;;
19782;SDS011;10051;40.294;-3.754;2022-11-15T04:28:57;2.10;;;1.70;;
19782;SDS011;10051;40.294;-3.754;2022-11-15T04:31:41;2.67;;;1.70;;
19782;SDS011;10051;40.294;-3.754;2022-11-15T04:34:06;2.00;;;1.70;;
19782;SDS011;10051;40.294;-3.754;2022-11-15T04:36:32;1.95;;;1.58;;
19782;SDS011;10051;40.294;-3.754;2022-11-15T04:39:16;1.92;;;1.60;;
19782;SDS011;10051;40.294;-3.754;2022-11-15T04:41:41;2.30;;;1.50;;
19782;SDS011;10051;40.294;-3.754;2022-11-15T04:44:07;2.67;;;1.77;;
19782;SDS011;10051;40.294;-3.754;2022-11-15T04:46:32;1.80;;;1.65;;
19782;SDS011;10051;40.294;-3.754;2022-11-15T04:49:00;1.65;;;1.55;;
19782;SDS011;10051;40.294;-3.754;2022-11-15T04:51:26;2.13;;;1.50;;
19782;SDS011;10051;40.294;-3.754;2022-11-15T04:53:51;1.98;;;1.50;;
19782;SDS011;10051;40.294;-3.754;2022-11-15T04:56:18;2.08;;;1.80;;
19782;SDS011;10051;40.294;-3.754;2022-11-15T04:58:44;2.03;;;1.40;;
19782;SDS011;10051;40.294;-3.754;2022-11-15T05:01:10;3.80;;;1.80;;
19782;SDS011;10051;40.294;-3.754;2022-11-15T05:03:37;2.15;;;1.73;;
19782;SDS011;10051;40.294;-3.754;2022-11-15T05:06:21;1.63;;;1.42;;
19782;SDS011;10051;40.294;-3.754;2022-11-15T05:08:46;2.88;;;1.70;;
19782;SDS011;10051;40.294;-3.754;2022-11-15T05:11:11;1.60;;;1.50;;
19782;SDS011;10051;40.294;-3.754;2022-11-15T05:13:37;2.05;;;1.42;;
19782;SDS011;10051;40.294;-3.754;2022-11-15T05:16:02;2.63;;;1.52;;
19782;SDS011;10051;40.294;-3.754;2022-11-15T05:18:28;2.03;;;1.30;;
19782;SDS011;10051;40.294;-3.754;2022-11-15T05:20:53;2.05;;;1.58;;
19782;SDS011;10051;40.294;-3.754;2022-11-15T05:23:19;3.05;;;1.80;;
19782;SDS011;10051;40.294;-3.754;2022-11-15T05:25:44;2.35;;;1.90;;
19782;SDS011;10051;40.294;-3.754;2022-11-15T05:28:10;3.72;;;1.85;;
19782;SDS011;10051;40.294;-3.754;2022-11-15T05:30:35;2.35;;;2.03;;
19782;SDS011;10051;40.294;-3.754;2022-11-15T05:33:01;2.67;;;1.90;;
19782;SDS011;10051;40.294;-3.754;2022-11-15T05:35:30;2.60;;;1.80;;
19782;SDS011;10051;40.294;-3.754;2022-11-15T05:38:00;4.25;;;2.30;;
19782;SDS011;10051;40.294;-3.754;2022-11-15T05:40:26;2.92;;;2.63;;
19782;SDS011;10051;40.294;-3.754;2022-11-15T05:42:53;3.83;;;2.80;;
19782;SDS011;10051;40.294;-3.754;2022-11-15T05:45:19;4.13;;;2.47;;
19782;SDS011;10051;40.294;-3.754;2022-11-15T05:47:45;2.50;;;1.92;;
19782;SDS011;10051;40.294;-3.754;2022-11-15T05:50:12;3.28;;;2.20;;
19782;SDS011;10051;40.294;-3.754;2022-11-15T05:52:40;3.08;;;2.38;;
19782;SDS011;10051;40.294;-3.754;2022-11-15T05:55:07;3.80;;;2.60;;
19782;SDS011;10051;40.294;-3.754;2022-11-15T05:57:33;2.80;;;2.50;;
19782;SDS011;10051;40.294;-3.754;2022-11-15T05:59:59;2.70;;;2.40;;
19782;SDS011;10051;40.294;-3.754;2022-11-15T06:02:25;2.28;;;2.08;;
19782;SDS011;10051;40.294;-3.754;2022-11-15T06:04:50;3.47;;;2.35;;
19782;SDS011;10051;40.294;-3.754;2022-11-15T06:07:16;3.45;;;2.30;;
19782;SDS011;10051;40.294;-3.754;2022-11-15T06:09:41;2.47;;;2.10;;
19782;SDS011;10051;40.294;-3.754;2022-11-15T06:12:07;3.15;;;2.00;;
19782;SDS011;10051;40.294;-3.754;2022-11-15T06:14:32;2.80;;;1.90;;
19782;SDS011;10051;40.294;-3.754;2022-11-15T06:16:57;2.42;;;2.00;;
19782;SDS011;10051;40.294;-3.754;2022-11-15T06:19:23;2.25;;;1.70;;
19782;SDS011;10051;40.294;-3.754;2022-11-15T06:21:48;2.30;;;1.80;;
19782;SDS011;10051;40.294;-3.754;2022-11-15T06:24:14;2.10;;;1.63;;
19782;SDS011;10051;40.294;-3.754;2022-11-15T06:26:39;2.70;;;1.80;;
19782;SDS011;10051;40.294;-3.754;2022-11-15T06:29:04;2.05;;;1.63;;
19782;SDS011;10051;40.294;-3.754;2022-11-15T06:31:30;3.83;;;1.70;;
19782;SDS011;10051;40.294;-3.754;2022-11-15T06:33:56;3.53;;;1.48;;
19782;SDS011;10051;40.294;-3.754;2022-11-15T06:36:21;2.33;;;1.48;;
19782;SDS011;10051;40.294;-3.754;2022-11-15T06:38:47;1.40;;;1.30;;
19782;SDS011;10051;40.294;-3.754;2022-11-15T06:41:13;1.60;;;1.25;;
19782;SDS011;10051;40.294;-3.754;2022-11-15T06:43:39;1.58;;;1.23;;
19782;SDS011;10051;40.294;-3.754;2022-11-15T06:46:05;1.58;;;1.00;;
19782;SDS011;10051;40.294;-3.754;2022-11-15T06:48:32;1.48;;;1.00;;
19782;SDS011;10051;40.294;-3.754;2022-11-15T06:50:58;0.85;;;0.80;;
19782;SDS011;10051;40.294;-3.754;2022-11-15T06:53:26;1.00;;;0.90;;
19782;SDS011;10051;40.294;-3.754;2022-11-15T06:55:51;2.60;;;0.95;;
19782;SDS011;10051;40.294;-3.754;2022-11-15T06:58:17;1.88;;;1.10;;
19782;SDS011;10051;40.294;-3.754;2022-11-15T07:00:43;6.10;;;1.00;;
19782;SDS011;10051;40.294;-3.754;2022-11-15T07:03:09;1.27;;;1.00;;
19782;SDS011;10051;40.294;-3.754;2022-11-15T07:05:35;2.03;;;1.05;;
19782;SDS011;10051;40.294;-3.754;2022-11-15T07:08:00;1.20;;;1.00;;
19782;SDS011;10051;40.294;-3.754;2022-11-15T07:10:26;1.40;;;1.02;;
19782;SDS011;10051;40.294;-3.754;2022-11-15T07:12:53;1.38;;;1.10;;
19782;SDS011;10051;40.294;-3.754;2022-11-15T07:15:19;2.05;;;1.15;;
19782;SDS011;10051;40.294;-3.754;2022-11-15T07:17:46;1.52;;;1.17;;
19782;SDS011;10051;40.294;-3.754;2022-11-15T07:20:12;1.88;;;1.00;;
19782;SDS011;10051;40.294;-3.754;2022-11-15T07:22:38;3.08;;;1.13;;
19782;SDS011;10051;40.294;-3.754;2022-11-15T07:25:07;1.77;;;1.20;;
19782;SDS011;10051;40.294;-3.754;2022-11-15T07:27:34;1.90;;;1.13;;
19782;SDS011;10051;40.294;-3.754;2022-11-15T07:29:59;3.50;;;1.27;;
19782;SDS011;10051;40.294;-3.754;2022-11-15T07:32:25;1.50;;;1.00;;
19782;SDS011;10051;40.294;-3.754;2022-11-15T07:34:51;2.17;;;1.00;;
19782;SDS011;10051;40.294;-3.754;2022-11-15T07:37:17;2.55;;;1.10;;
19782;SDS011;10051;40.294;-3.754;2022-11-15T07:39:42;1.80;;;1.00;;
19782;SDS011;10051;40.294;-3.754;2022-11-15T07:42:08;1.40;;;1.20;;
19782;SDS011;10051;40.294;-3.754;2022-11-15T07:44:52;1.42;;;1.05;;
19782;SDS011;10051;40.294;-3.754;2022-11-15T07:47:18;2.50;;;1.38;;
19782;SDS011;10051;40.294;-3.754;2022-11-15T07:49:44;2.60;;;1.50;;
19782;SDS011;10051;40.294;-3.754;2022-11-15T07:52:10;2.55;;;1.60;;
19782;SDS011;10051;40.294;-3.754;2022-11-15T07:54:36;2.50;;;1.70;;
19782;SDS011;10051;40.294;-3.754;2022-11-15T07:57:02;2.20;;;1.60;;
19782;SDS011;10051;40.294;-3.754;2022-11-15T07:59:27;5.25;;;1.40;;
19782;SDS011;10051;40.294;-3.754;2022-11-15T08:01:53;3.97;;;1.38;;
19782;SDS011;10051;40.294;-3.754;2022-11-15T08:04:18;12.13;;;1.60;;
19782;SDS011;10051;40.294;-3.754;2022-11-15T08:06:44;5.97;;;1.50;;
19782;SDS011;10051;40.294;-3.754;2022-11-15T08:09:09;3.65;;;1.20;;
19782;SDS011;10051;40.294;-3.754;2022-11-15T08:11:34;3.70;;;1.20;;
19782;SDS011;10051;40.294;-3.754;2022-11-15T08:14:00;4.63;;;1.00;;
19782;SDS011;10051;40.294;-3.754;2022-11-15T08:16:25;2.30;;;0.80;;
19782;SDS011;10051;40.294;-3.754;2022-11-15T08:18:51;0.80;;;0.70;;
19782;SDS011;10051;40.294;-3.754;2022-11-15T08:21:18;1.25;;;0.93;;
19782;SDS011;10051;40.294;-3.754;2022-11-15T08:23:45;1.08;;;0.90;;
19782;SDS011;10051;40.294;-3.754;2022-11-15T08:26:10;1.10;;;0.82;;
19782;SDS011;10051;40.294;-3.754;2022-11-15T08:28:36;6.27;;;0.90;;
19782;SDS011;10051;40.294;-3.754;2022-11-15T08:31:02;2.73;;;0.80;;
19782;SDS011;10051;40.294;-3.754;2022-11-15T08:33:28;1.05;;;0.80;;
19782;SDS011;10051;40.294;-3.754;2022-11-15T08:35:57;20.40;;;2.25;;
19782;SDS011;10051;40.294;-3.754;2022-11-15T08:38:23;6.10;;;1.00;;
19782;SDS011;10051;40.294;-3.754;2022-11-15T08:40:52;14.52;;;1.02;;
19782;SDS011;10051;40.294;-3.754;2022-11-15T08:43:24;49.30;;;7.03;;
19782;SDS011;10051;40.294;-3.754;2022-11-15T08:45:50;24.50;;;2.60;;
19782;SDS011;10051;40.294;-3.754;2022-11-15T08:48:15;1.58;;;0.70;;
19782;SDS011;10051;40.294;-3.754;2022-11-15T08:50:41;7.97;;;2.08;;
19782;SDS011;10051;40.294;-3.754;2022-11-15T08:53:08;6.13;;;1.50;;
19782;SDS011;10051;40.294;-3.754;2022-11-15T08:55:37;1.65;;;0.88;;
19782;SDS011;10051;40.294;-3.754;2022-11-15T08:58:03;3.03;;;1.25;;
19782;SDS011;10051;40.294;-3.754;2022-11-15T09:00:29;1.38;;;0.80;;
19782;SDS011;10051;40.294;-3.754;2022-11-15T09:02:54;1.15;;;0.73;;
19782;SDS011;10051;40.294;-3.754;2022-11-15T09:05:20;2.37;;;0.70;;
19782;SDS011;10051;40.294;-3.754;2022-11-15T09:07:46;1.35;;;0.90;;
19782;SDS011;10051;40.294;-3.754;2022-11-15T09:10:11;2.10;;;0.80;;
19782;SDS011;10051;40.294;-3.754;2022-11-15T09:12:37;0.57;;;0.55;;
19782;SDS011;10051;40.294;-3.754;2022-11-15T09:15:03;2.10;;;0.60;;
19782;SDS011;10051;40.294;-3.754;2022-11-15T09:17:30;0.73;;;0.60;;
19782;SDS011;10051;40.294;-3.754;2022-11-15T09:19:56;1.00;;;0.90;;
19782;SDS011;10051;40.294;-3.754;2022-11-15T09:22:21;2.35;;;0.82;;
19782;SDS011;10051;40.294;-3.754;2022-11-15T09:24:46;1.30;;;0.87;;
19782;SDS011;10051;40.294;-3.754;2022-11-15T09:27:12;1.35;;;0.82;;
19782;SDS011;10051;40.294;-3.754;2022-11-15T09:29:38;0.90;;;0.70;;
19782;SDS011;10051;40.294;-3.754;2022-11-15T09:32:04;1.10;;;0.80;;
19782;SDS011;10051;40.294;-3.754;2022-11-15T09:34:29;2.63;;;0.80;;
19782;SDS011;10051;40.294;-3.754;2022-11-15T09:36:55;1.52;;;0.90;;
19782;SDS011;10051;40.294;-3.754;2022-11-15T09:39:24;1.67;;;0.80;;
19782;SDS011;10051;40.294;-3.754;2022-11-15T09:41:58;0.63;;;0.60;;
19782;SDS011;10051;40.294;-3.754;2022-11-15T09:50:15;1.92;;;0.80;;
19782;SDS011;10051;40.294;-3.754;2022-11-15T09:52:53;1.50;;;0.82;;
19782;SDS011;10051;40.294;-3.754;2022-11-15T09:55:20;1.10;;;0.80;;
19782;SDS011;10051;40.294;-3.754;2022-11-15T09:58:01;1.10;;;0.70;;
19782;SDS011;10051;40.294;-3.754;2022-11-15T10:00:40;1.08;;;0.75;;
19782;SDS011;10051;40.294;-3.754;2022-11-15T10:05:42;1.02;;;0.80;;
19782;SDS011;10051;40.294;-3.754;2022-11-15T10:11:11;0.77;;;0.70;;
19782;SDS011;10051;40.294;-3.754;2022-11-15T10:13:41;1.23;;;0.70;;
19782;SDS011;10051;40.294;-3.754;2022-11-15T10:24:26;0.70;;;0.50;;
19782;SDS011;10051;40.294;-3.754;2022-11-15T10:26:56;1.17;;;0.70;;
19782;SDS011;10051;40.294;-3.754;2022-11-15T10:29:22;1.00;;;0.80;;
19782;SDS011;10051;40.294;-3.754;2022-11-15T10:31:49;1.20;;;0.60;;
19782;SDS011;10051;40.294;-3.754;2022-11-15T10:34:16;2.00;;;0.60;;
19782;SDS011;10051;40.294;-3.754;2022-11-15T10:36:57;1.50;;;0.70;;
19782;SDS011;10051;40.294;-3.754;2022-11-15T10:39:24;3.13;;;1.10;;
19782;SDS011;10051;40.294;-3.754;2022-11-15T10:41:50;2.65;;;0.82;;
19782;SDS011;10051;40.294;-3.754;2022-11-15T10:46:43;2.80;;;0.82;;
19782;SDS011;10051;40.294;-3.754;2022-11-15T10:49:19;4.68;;;0.52;;
19782;SDS011;10051;40.294;-3.754;2022-11-15T10:54:28;2.03;;;0.50;;
19782;SDS011;10051;40.294;-3.754;2022-11-15T10:56:59;1.17;;;0.60;;
19782;SDS011;10051;40.294;-3.754;2022-11-15T10:59:30;1.75;;;0.80;;
19782;SDS011;10051;40.294;-3.754;2022-11-15T11:01:58;1.10;;;0.70;;
19782;SDS011;10051;40.294;-3.754;2022-11-15T11:04:24;1.80;;;0.57;;
19782;SDS011;10051;40.294;-3.754;2022-11-15T11:06:51;3.90;;;0.70;;
19782;SDS011;10051;40.294;-3.754;2022-11-15T11:09:32;1.30;;;0.70;;
19782;SDS011;10051;40.294;-3.754;2022-11-15T11:12:03;1.58;;;0.70;;
19782;SDS011;10051;40.294;-3.754;2022-11-15T11:14:31;3.05;;;1.00;;
19782;SDS011;10051;40.294;-3.754;2022-11-15T11:27:52;2.75;;;0.50;;
19782;SDS011;10051;40.294;-3.754;2022-11-15T11:33:24;2.50;;;0.73;;
19782;SDS011;10051;40.294;-3.754;2022-11-15T11:36:04;2.10;;;0.60;;
19782;SDS011;10051;40.294;-3.754;2022-11-15T11:38:44;1.92;;;0.63;;
19782;SDS011;10051;40.294;-3.754;2022-11-15T11:46:35;4.82;;;0.80;;
19782;SDS011;10051;40.294;-3.754;2022-11-15T11:49:15;1.88;;;0.70;;
19782;SDS011;10051;40.294;-3.754;2022-11-15T11:52:08;1.75;;;0.50;;
19782;SDS011;10051;40.294;-3.754;2022-11-15T11:57:24;0.70;;;0.50;;
19782;SDS011;10051;40.294;-3.754;2022-11-15T11:59:58;0.70;;;0.47;;
19782;SDS011;10051;40.294;-3.754;2022-11-15T12:02:30;2.83;;;0.60;;
19782;SDS011;10051;40.294;-3.754;2022-11-15T12:05:05;2.08;;;0.60;;
19782;SDS011;10051;40.294;-3.754;2022-11-15T12:07:36;3.67;;;0.60;;
19782;SDS011;10051;40.294;-3.754;2022-11-15T12:10:14;1.60;;;0.60;;
19782;SDS011;10051;40.294;-3.754;2022-11-15T12:15:42;1.45;;;0.40;;
19782;SDS011;10051;40.294;-3.754;2022-11-15T12:18:12;1.17;;;0.60;;
19782;SDS011;10051;40.294;-3.754;2022-11-15T12:20:41;2.00;;;0.50;;
19782;SDS011;10051;40.294;-3.754;2022-11-15T12:23:39;3.58;;;0.50;;
19782;SDS011;10051;40.294;-3.754;2022-11-15T12:26:11;1.20;;;0.50;;
19782;SDS011;10051;40.294;-3.754;2022-11-15T12:28:48;2.03;;;0.60;;
19782;SDS011;10051;40.294;-3.754;2022-11-15T12:34:12;1.45;;;0.40;;
19782;SDS011;10051;40.294;-3.754;2022-11-15T12:36:54;2.05;;;0.60;;
19782;SDS011;10051;40.294;-3.754;2022-11-15T12:39:20;4.13;;;0.60;;
19782;SDS011;10051;40.294;-3.754;2022-11-15T12:42:42;1.55;;;0.50;;
19782;SDS011;10051;40.294;-3.754;2022-11-15T12:53:25;2.03;;;0.70;;
19782;SDS011;10051;40.294;-3.754;2022-11-15T13:01:07;3.90;;;0.65;;
19782;SDS011;10051;40.294;-3.754;2022-11-15T13:03:32;3.35;;;0.82;;
19782;SDS011;10051;40.294;-3.754;2022-11-15T13:05:59;1.33;;;0.60;;
19782;SDS011;10051;40.294;-3.754;2022-11-15T13:08:37;2.22;;;0.70;;
19782;SDS011;10051;40.294;-3.754;2022-11-15T13:19:47;2.28;;;0.60;;
19782;SDS011;10051;40.294;-3.754;2022-11-15T13:22:18;0.88;;;0.55;;
19782;SDS011;10051;40.294;-3.754;2022-11-15T13:25:03;4.00;;;0.65;;
19782;SDS011;10051;40.294;-3.754;2022-11-15T13:27:29;6.13;;;0.60;;
19782;SDS011;10051;40.294;-3.754;2022-11-15T13:29:54;3.15;;;0.73;;
19782;SDS011;10051;40.294;-3.754;2022-11-15T13:32:20;2.53;;;0.50;;
19782;SDS011;10051;40.294;-3.754;2022-11-15T13:34:47;1.20;;;0.50;;
19782;SDS011;10051;40.294;-3.754;2022-11-15T13:39:46;1.30;;;0.63;;
19782;SDS011;10051;40.294;-3.754;2022-11-15T13:42:15;2.78;;;0.70;;
19782;SDS011;10051;40.294;-3.754;2022-11-15T13:44:55;1.95;;;0.70;;
19782;SDS011;10051;40.294;-3.754;2022-11-15T13:47:21;2.15;;;0.55;;
19782;SDS011;10051;40.294;-3.754;2022-11-15T13:49:46;1.63;;;0.57;;
19782;SDS011;10051;40.294;-3.754;2022-11-15T13:52:13;4.05;;;0.63;;
19782;SDS011;10051;40.294;-3.754;2022-11-15T13:57:48;3.35;;;0.70;;
19782;SDS011;10051;40.294;-3.754;2022-11-15T14:05:39;4.88;;;0.80;;
19782;SDS011;10051;40.294;-3.754;2022-11-15T14:08:23;3.50;;;0.90;;
19782;SDS011;10051;40.294;-3.754;2022-11-15T14:11:05;6.07;;;1.60;;
19782;SDS011;10051;40.294;-3.754;2022-11-15T14:13:37;2.70;;;0.90;;
19782;SDS011;10051;40.294;-3.754;2022-11-15T14:16:16;6.55;;;1.58;;
19782;SDS011;10051;40.294;-3.754;2022-11-15T14:18:49;4.15;;;1.23;;
19782;SDS011;10051;40.294;-3.754;2022-11-15T14:21:17;5.93;;;1.55;;
19782;SDS011;10051;40.294;-3.754;2022-11-15T14:23:44;2.47;;;1.20;;
19782;SDS011;10051;40.294;-3.754;2022-11-15T14:26:25;4.47;;;1.20;;
19782;SDS011;10051;40.294;-3.754;2022-11-15T14:28:55;3.97;;;1.10;;
19782;SDS011;10051;40.294;-3.754;2022-11-15T14:31:21;4.68;;;1.40;;
19782;SDS011;10051;40.294;-3.754;2022-11-15T14:33:47;4.47;;;1.50;;
19782;SDS011;10051;40.294;-3.754;2022-11-15T14:36:20;4.10;;;1.40;;
19782;SDS011;10051;40.294;-3.754;2022-11-15T14:38:46;3.95;;;1.00;;
19782;SDS011;10051;40.294;-3.754;2022-11-15T14:41:34;2.22;;;0.70;;
19782;SDS011;10051;40.294;-3.754;2022-11-15T14:44:02;2.45;;;0.82;;
19782;SDS011;10051;40.294;-3.754;2022-11-15T14:46:28;2.38;;;0.77;;
19782;SDS011;10051;40.294;-3.754;2022-11-15T14:48:54;2.67;;;0.80;;
19782;SDS011;10051;40.294;-3.754;2022-11-15T14:51:19;3.35;;;0.80;;
19782;SDS011;10051;40.294;-3.754;2022-11-15T14:53:46;4.45;;;0.80;;
19782;SDS011;10051;40.294;-3.754;2022-11-15T14:56:12;2.13;;;0.70;;
19782;SDS011;10051;40.294;-3.754;2022-11-15T14:58:38;2.78;;;0.70;;
19782;SDS011;10051;40.294;-3.754;2022-11-15T15:01:37;1.65;;;0.70;;
19782;SDS011;10051;40.294;-3.754;2022-11-15T15:03:56;1.92;;;0.75;;
19782;SDS011;10051;40.294;-3.754;2022-11-15T15:06:23;2.85;;;0.60;;
19782;SDS011;10051;40.294;-3.754;2022-11-15T15:08:49;4.30;;;0.82;;
19782;SDS011;10051;40.294;-3.754;2022-11-15T15:11:26;3.00;;;0.77;;
19782;SDS011;10051;40.294;-3.754;2022-11-15T15:13:54;1.77;;;0.60;;
19782;SDS011;10051;40.294;-3.754;2022-11-15T15:16:22;4.00;;;1.35;;
19782;SDS011;10051;40.294;-3.754;2022-11-15T15:18:50;3.75;;;0.90;;
19782;SDS011;10051;40.294;-3.754;2022-11-15T15:21:23;2.95;;;1.13;;
19782;SDS011;10051;40.294;-3.754;2022-11-15T15:23:50;5.57;;;1.00;;
19782;SDS011;10051;40.294;-3.754;2022-11-15T15:26:16;1.48;;;0.90;;
19782;SDS011;10051;40.294;-3.754;2022-11-15T15:28:42;3.17;;;1.10;;
19782;SDS011;10051;40.294;-3.754;2022-11-15T15:31:08;3.85;;;1.00;;
19782;SDS011;10051;40.294;-3.754;2022-11-15T15:33:34;2.70;;;0.85;;
19782;SDS011;10051;40.294;-3.754;2022-11-15T15:36:00;4.60;;;1.02;;
19782;SDS011;10051;40.294;-3.754;2022-11-15T15:38:25;5.47;;;1.00;;
19782;SDS011;10051;40.294;-3.754;2022-11-15T15:40:51;3.08;;;1.00;;
19782;SDS011;10051;40.294;-3.754;2022-11-15T15:43:16;3.78;;;0.95;;
19782;SDS011;10051;40.294;-3.754;2022-11-15T15:45:42;4.97;;;1.20;;
19782;SDS011;10051;40.294;-3.754;2022-11-15T15:48:10;2.47;;;0.98;;
19782;SDS011;10051;40.294;-3.754;2022-11-15T15:50:37;3.53;;;1.30;;
19782;SDS011;10051;40.294;-3.754;2022-11-15T15:53:03;3.20;;;1.25;;
19782;SDS011;10051;40.294;-3.754;2022-11-15T15:55:30;1.63;;;0.90;;
19782;SDS011;10051;40.294;-3.754;2022-11-15T15:57:55;1.90;;;0.90;;
19782;SDS011;10051;40.294;-3.754;2022-11-15T16:00:22;3.33;;;1.10;;
19782;SDS011;10051;40.294;-3.754;2022-11-15T16:02:49;4.63;;;1.60;;
19782;SDS011;10051;40.294;-3.754;2022-11-15T16:05:15;3.47;;;1.10;;
19782;SDS011;10051;40.294;-3.754;2022-11-15T16:07:41;3.95;;;1.30;;
19782;SDS011;10051;40.294;-3.754;2022-11-15T16:10:17;4.80;;;1.35;;
19782;SDS011;10051;40.294;-3.754;2022-11-15T16:12:53;3.78;;;1.50;;
19782;SDS011;10051;40.294;-3.754;2022-11-15T16:15:20;3.22;;;1.38;;
19782;SDS011;10051;40.294;-3.754;2022-11-15T16:17:49;2.72;;;1.27;;
19782;SDS011;10051;40.294;-3.754;2022-11-15T16:20:26;2.05;;;1.00;;
19782;SDS011;10051;40.294;-3.754;2022-11-15T16:23:05;3.78;;;1.30;;
19782;SDS011;10051;40.294;-3.754;2022-11-15T16:25:54;3.13;;;1.20;;
19782;SDS011;10051;40.294;-3.754;2022-11-15T16:28:30;2.78;;;1.40;;
19782;SDS011;10051;40.294;-3.754;2022-11-15T16:31:04;2.95;;;1.27;;
19782;SDS011;10051;40.294;-3.754;2022-11-15T16:33:33;3.95;;;1.50;;
19782;SDS011;10051;40.294;-3.754;2022-11-15T16:35:58;6.57;;;1.50;;